sensor_id;sensor_type;location;lat;lon;timestamp;temperature;humidity
60287;DHT22;46141;52.382;5.270;2023-04-29T00:00:02;19.60;68.50
60287;DHT22;46141;52.382;5.270;2023-04-29T00:02:29;19.60;68.60
60287;DHT22;46141;52.382;5.270;2023-04-29T00:04:55;19.60;68.50
60287;DHT22;46141;52.382;5.270;2023-04-29T00:07:21;19.70;68.50
60287;DHT22;46141;52.382;5.270;2023-04-29T00:09:47;19.60;68.60
60287;DHT22;46141;52.382;5.270;2023-04-29T00:12:12;19.60;68.70
60287;DHT22;46141;52.382;5.270;2023-04-29T00:14:38;19.60;68.60
60287;DHT22;46141;52.382;5.270;2023-04-29T00:17:04;19.60;68.60
60287;DHT22;46141;52.382;5.270;2023-04-29T00:19:29;19.60;68.70
60287;DHT22;46141;52.382;5.270;2023-04-29T00:21:55;19.60;68.70
60287;DHT22;46141;52.382;5.270;2023-04-29T00:24:21;19.60;68.60
60287;DHT22;46141;52.382;5.270;2023-04-29T00:26:46;19.60;68.60
60287;DHT22;46141;52.382;5.270;2023-04-29T00:29:13;19.60;68.80
60287;DHT22;46141;52.382;5.270;2023-04-29T00:31:38;19.60;68.80
60287;DHT22;46141;52.382;5.270;2023-04-29T00:34:04;19.50;68.80
60287;DHT22;46141;52.382;5.270;2023-04-29T00:36:30;19.50;68.80
60287;DHT22;46141;52.382;5.270;2023-04-29T00:38:56;19.50;68.90
60287;DHT22;46141;52.382;5.270;2023-04-29T00:41:24;19.50;68.90
60287;DHT22;46141;52.382;5.270;2023-04-29T00:43:50;19.50;68.90
60287;DHT22;46141;52.382;5.270;2023-04-29T00:46:16;19.50;68.80
60287;DHT22;46141;52.382;5.270;2023-04-29T00:48:41;19.50;68.80
60287;DHT22;46141;52.382;5.270;2023-04-29T00:51:08;19.50;68.60
60287;DHT22;46141;52.382;5.270;2023-04-29T00:53:34;19.50;68.80
60287;DHT22;46141;52.382;5.270;2023-04-29T00:56:01;19.50;68.70
60287;DHT22;46141;52.382;5.270;2023-04-29T00:58:29;19.50;68.70
60287;DHT22;46141;52.382;5.270;2023-04-29T01:01:01;19.50;68.70
60287;DHT22;46141;52.382;5.270;2023-04-29T01:03:29;19.50;68.70
60287;DHT22;46141;52.382;5.270;2023-04-29T01:11:34;19.40;68.50
60287;DHT22;46141;52.382;5.270;2023-04-29T01:14:04;19.40;68.40
60287;DHT22;46141;52.382;5.270;2023-04-29T01:16:46;19.40;68.40
60287;DHT22;46141;52.382;5.270;2023-04-29T01:22:07;19.40;68.40
60287;DHT22;46141;52.382;5.270;2023-04-29T01:24:33;19.40;68.30
60287;DHT22;46141;52.382;5.270;2023-04-29T01:27:13;19.40;68.20
60287;DHT22;46141;52.382;5.270;2023-04-29T01:29:52;19.40;68.20
60287;DHT22;46141;52.382;5.270;2023-04-29T01:32:54;19.40;68.30
60287;DHT22;46141;52.382;5.270;2023-04-29T01:41:17;19.40;68.20
60287;DHT22;46141;52.382;5.270;2023-04-29T01:43:49;19.40;68.10
60287;DHT22;46141;52.382;5.270;2023-04-29T01:46:16;19.30;68.00
60287;DHT22;46141;52.382;5.270;2023-04-29T01:48:45;19.30;68.00
60287;DHT22;46141;52.382;5.270;2023-04-29T01:51:11;19.40;68.10
60287;DHT22;46141;52.382;5.270;2023-04-29T01:53:37;19.30;68.00
60287;DHT22;46141;52.382;5.270;2023-04-29T01:56:05;19.30;68.00
60287;DHT22;46141;52.382;5.270;2023-04-29T01:58:31;19.30;68.00
60287;DHT22;46141;52.382;5.270;2023-04-29T02:00:57;19.30;68.00
60287;DHT22;46141;52.382;5.270;2023-04-29T02:03:22;19.30;67.90
60287;DHT22;46141;52.382;5.270;2023-04-29T02:05:48;19.30;68.00
60287;DHT22;46141;52.382;5.270;2023-04-29T02:08:18;19.30;67.80
60287;DHT22;46141;52.382;5.270;2023-04-29T02:10:56;19.30;67.80
60287;DHT22;46141;52.382;5.270;2023-04-29T02:13:22;19.30;67.80
60287;DHT22;46141;52.382;5.270;2023-04-29T02:15:48;19.30;67.80
60287;DHT22;46141;52.382;5.270;2023-04-29T02:18:14;19.30;67.80
60287;DHT22;46141;52.382;5.270;2023-04-29T02:20:40;19.20;67.80
60287;DHT22;46141;52.382;5.270;2023-04-29T02:23:06;19.20;67.80
60287;DHT22;46141;52.382;5.270;2023-04-29T02:25:32;19.20;67.80
60287;DHT22;46141;52.382;5.270;2023-04-29T02:27:57;19.30;67.80
60287;DHT22;46141;52.382;5.270;2023-04-29T02:30:23;19.20;67.70
60287;DHT22;46141;52.382;5.270;2023-04-29T02:32:49;19.30;67.80
60287;DHT22;46141;52.382;5.270;2023-04-29T02:35:14;19.20;67.70
60287;DHT22;46141;52.382;5.270;2023-04-29T02:37:40;19.20;67.70
60287;DHT22;46141;52.382;5.270;2023-04-29T02:40:06;19.20;67.70
60287;DHT22;46141;52.382;5.270;2023-04-29T02:42:32;19.20;67.70
60287;DHT22;46141;52.382;5.270;2023-04-29T02:44:58;19.20;67.70
60287;DHT22;46141;52.382;5.270;2023-04-29T02:47:23;19.20;67.70
60287;DHT22;46141;52.382;5.270;2023-04-29T02:49:49;19.20;67.70
60287;DHT22;46141;52.382;5.270;2023-04-29T02:52:15;19.20;67.70
60287;DHT22;46141;52.382;5.270;2023-04-29T02:54:41;19.20;67.60
60287;DHT22;46141;52.382;5.270;2023-04-29T02:57:07;19.10;67.60
60287;DHT22;46141;52.382;5.270;2023-04-29T02:59:33;19.20;67.60
60287;DHT22;46141;52.382;5.270;2023-04-29T03:01:59;19.10;67.60
60287;DHT22;46141;52.382;5.270;2023-04-29T03:04:26;19.10;67.50
60287;DHT22;46141;52.382;5.270;2023-04-29T03:06:54;19.10;67.70
60287;DHT22;46141;52.382;5.270;2023-04-29T03:09:21;19.10;67.50
60287;DHT22;46141;52.382;5.270;2023-04-29T03:11:47;19.10;67.60
60287;DHT22;46141;52.382;5.270;2023-04-29T03:14:12;19.10;67.60
60287;DHT22;46141;52.382;5.270;2023-04-29T03:16:38;19.10;67.70
60287;DHT22;46141;52.382;5.270;2023-04-29T03:19:04;19.10;67.60
60287;DHT22;46141;52.382;5.270;2023-04-29T03:21:29;19.10;67.60
60287;DHT22;46141;52.382;5.270;2023-04-29T03:23:55;19.10;67.60
60287;DHT22;46141;52.382;5.270;2023-04-29T03:26:21;19.10;67.60
60287;DHT22;46141;52.382;5.270;2023-04-29T03:28:49;19.00;67.50
60287;DHT22;46141;52.382;5.270;2023-04-29T03:31:14;19.10;67.50
60287;DHT22;46141;52.382;5.270;2023-04-29T03:33:41;19.10;67.50
60287;DHT22;46141;52.382;5.270;2023-04-29T03:36:07;19.00;67.50
60287;DHT22;46141;52.382;5.270;2023-04-29T03:38:33;19.00;67.50
60287;DHT22;46141;52.382;5.270;2023-04-29T03:40:59;19.00;67.50
60287;DHT22;46141;52.382;5.270;2023-04-29T03:43:25;19.00;67.50
60287;DHT22;46141;52.382;5.270;2023-04-29T03:45:51;19.00;67.50
60287;DHT22;46141;52.382;5.270;2023-04-29T03:48:17;19.00;67.50
60287;DHT22;46141;52.382;5.270;2023-04-29T03:50:44;19.00;67.40
60287;DHT22;46141;52.382;5.270;2023-04-29T03:53:11;19.00;67.50
60287;DHT22;46141;52.382;5.270;2023-04-29T03:55:37;19.00;67.40
60287;DHT22;46141;52.382;5.270;2023-04-29T03:58:02;18.90;67.40
60287;DHT22;46141;52.382;5.270;2023-04-29T04:00:29;19.00;67.40
60287;DHT22;46141;52.382;5.270;2023-04-29T04:02:58;18.90;67.40
60287;DHT22;46141;52.382;5.270;2023-04-29T04:05:24;18.90;67.40
60287;DHT22;46141;52.382;5.270;2023-04-29T04:07:51;18.90;67.30
60287;DHT22;46141;52.382;5.270;2023-04-29T04:10:17;18.90;67.30
60287;DHT22;46141;52.382;5.270;2023-04-29T04:12:43;18.90;67.40
60287;DHT22;46141;52.382;5.270;2023-04-29T04:15:09;18.90;67.30
60287;DHT22;46141;52.382;5.270;2023-04-29T04:17:35;18.90;67.30
60287;DHT22;46141;52.382;5.270;2023-04-29T04:20:00;18.90;67.30
60287;DHT22;46141;52.382;5.270;2023-04-29T04:22:26;18.90;67.30
60287;DHT22;46141;52.382;5.270;2023-04-29T04:24:55;18.90;67.30
60287;DHT22;46141;52.382;5.270;2023-04-29T04:27:21;18.90;67.30
60287;DHT22;46141;52.382;5.270;2023-04-29T04:29:47;18.90;67.30
60287;DHT22;46141;52.382;5.270;2023-04-29T04:32:13;18.90;67.20
60287;DHT22;46141;52.382;5.270;2023-04-29T04:34:38;18.80;67.20
60287;DHT22;46141;52.382;5.270;2023-04-29T04:37:05;18.80;67.30
60287;DHT22;46141;52.382;5.270;2023-04-29T04:39:31;18.80;67.30
60287;DHT22;46141;52.382;5.270;2023-04-29T04:41:57;18.80;67.20
60287;DHT22;46141;52.382;5.270;2023-04-29T04:44:23;18.80;67.30
60287;DHT22;46141;52.382;5.270;2023-04-29T04:46:49;18.80;67.20
60287;DHT22;46141;52.382;5.270;2023-04-29T04:49:16;18.80;67.20
60287;DHT22;46141;52.382;5.270;2023-04-29T04:51:45;18.80;67.20
60287;DHT22;46141;52.382;5.270;2023-04-29T04:54:10;18.80;67.90
60287;DHT22;46141;52.382;5.270;2023-04-29T04:56:36;18.80;67.30
60287;DHT22;46141;52.382;5.270;2023-04-29T04:59:03;18.80;67.40
60287;DHT22;46141;52.382;5.270;2023-04-29T05:01:28;18.80;67.20
60287;DHT22;46141;52.382;5.270;2023-04-29T05:03:54;18.80;67.20
60287;DHT22;46141;52.382;5.270;2023-04-29T05:06:20;18.80;67.20
60287;DHT22;46141;52.382;5.270;2023-04-29T05:08:46;18.80;67.20
60287;DHT22;46141;52.382;5.270;2023-04-29T05:11:19;18.80;67.20
60287;DHT22;46141;52.382;5.270;2023-04-29T05:13:45;18.70;67.20
60287;DHT22;46141;52.382;5.270;2023-04-29T05:16:11;18.80;67.30
60287;DHT22;46141;52.382;5.270;2023-04-29T05:18:37;18.70;67.80
60287;DHT22;46141;52.382;5.270;2023-04-29T05:21:02;18.70;67.20
60287;DHT22;46141;52.382;5.270;2023-04-29T05:23:28;18.70;67.20
60287;DHT22;46141;52.382;5.270;2023-04-29T05:25:54;18.70;67.20
60287;DHT22;46141;52.382;5.270;2023-04-29T05:28:20;18.70;67.30
60287;DHT22;46141;52.382;5.270;2023-04-29T05:30:46;18.70;67.20
60287;DHT22;46141;52.382;5.270;2023-04-29T05:33:14;18.70;67.20
60287;DHT22;46141;52.382;5.270;2023-04-29T05:35:40;18.70;67.20
60287;DHT22;46141;52.382;5.270;2023-04-29T05:38:06;18.70;67.10
60287;DHT22;46141;52.382;5.270;2023-04-29T05:40:32;18.70;67.10
60287;DHT22;46141;52.382;5.270;2023-04-29T05:42:57;18.70;67.10
60287;DHT22;46141;52.382;5.270;2023-04-29T05:45:23;18.70;67.10
60287;DHT22;46141;52.382;5.270;2023-04-29T05:47:48;18.70;67.10
60287;DHT22;46141;52.382;5.270;2023-04-29T05:50:14;18.70;67.40
60287;DHT22;46141;52.382;5.270;2023-04-29T05:52:40;18.70;66.90
60287;DHT22;46141;52.382;5.270;2023-04-29T05:55:06;18.70;66.80
60287;DHT22;46141;52.382;5.270;2023-04-29T05:57:32;18.70;66.60
60287;DHT22;46141;52.382;5.270;2023-04-29T05:59:57;18.70;66.40
60287;DHT22;46141;52.382;5.270;2023-04-29T06:02:25;18.70;66.40
60287;DHT22;46141;52.382;5.270;2023-04-29T06:04:50;18.70;66.30
60287;DHT22;46141;52.382;5.270;2023-04-29T06:07:16;18.70;66.70
60287;DHT22;46141;52.382;5.270;2023-04-29T06:09:43;18.70;66.90
60287;DHT22;46141;52.382;5.270;2023-04-29T06:12:09;18.70;67.00
60287;DHT22;46141;52.382;5.270;2023-04-29T06:14:35;18.70;66.80
60287;DHT22;46141;52.382;5.270;2023-04-29T06:17:01;18.70;67.00
60287;DHT22;46141;52.382;5.270;2023-04-29T06:19:27;18.70;67.10
60287;DHT22;46141;52.382;5.270;2023-04-29T06:21:52;18.70;67.10
60287;DHT22;46141;52.382;5.270;2023-04-29T06:24:18;18.70;67.20
60287;DHT22;46141;52.382;5.270;2023-04-29T06:26:44;18.70;67.20
60287;DHT22;46141;52.382;5.270;2023-04-29T06:29:10;18.80;67.20
60287;DHT22;46141;52.382;5.270;2023-04-29T06:31:36;18.80;67.20
60287;DHT22;46141;52.382;5.270;2023-04-29T06:34:02;18.80;67.00
60287;DHT22;46141;52.382;5.270;2023-04-29T06:36:28;18.80;66.90
60287;DHT22;46141;52.382;5.270;2023-04-29T06:38:53;18.80;66.80
60287;DHT22;46141;52.382;5.270;2023-04-29T06:41:20;18.80;66.60
60287;DHT22;46141;52.382;5.270;2023-04-29T06:43:45;18.80;66.60
60287;DHT22;46141;52.382;5.270;2023-04-29T06:46:11;18.80;66.50
60287;DHT22;46141;52.382;5.270;2023-04-29T06:48:37;18.80;66.50
60287;DHT22;46141;52.382;5.270;2023-04-29T06:51:03;18.80;66.40
60287;DHT22;46141;52.382;5.270;2023-04-29T06:53:29;18.80;66.40
60287;DHT22;46141;52.382;5.270;2023-04-29T06:55:54;18.90;66.40
60287;DHT22;46141;52.382;5.270;2023-04-29T06:58:20;18.90;66.40
60287;DHT22;46141;52.382;5.270;2023-04-29T07:00:48;18.90;66.40
60287;DHT22;46141;52.382;5.270;2023-04-29T07:03:16;19.00;66.40
60287;DHT22;46141;52.382;5.270;2023-04-29T07:05:43;19.00;66.30
60287;DHT22;46141;52.382;5.270;2023-04-29T07:08:11;19.00;66.30
60287;DHT22;46141;52.382;5.270;2023-04-29T07:10:37;19.10;66.60
60287;DHT22;46141;52.382;5.270;2023-04-29T07:13:03;19.20;66.60
60287;DHT22;46141;52.382;5.270;2023-04-29T07:15:32;19.40;66.30
60287;DHT22;46141;52.382;5.270;2023-04-29T07:17:58;19.60;66.20
60287;DHT22;46141;52.382;5.270;2023-04-29T07:20:25;19.70;65.90
60287;DHT22;46141;52.382;5.270;2023-04-29T07:22:51;19.90;65.80
60287;DHT22;46141;52.382;5.270;2023-04-29T07:25:17;20.00;65.70
60287;DHT22;46141;52.382;5.270;2023-04-29T07:27:43;20.20;65.40
60287;DHT22;46141;52.382;5.270;2023-04-29T07:30:09;20.30;65.20
60287;DHT22;46141;52.382;5.270;2023-04-29T07:32:35;20.40;65.00
60287;DHT22;46141;52.382;5.270;2023-04-29T07:35:02;20.50;64.90
60287;DHT22;46141;52.382;5.270;2023-04-29T07:37:28;20.70;64.60
60287;DHT22;46141;52.382;5.270;2023-04-29T07:39:54;20.70;64.60
60287;DHT22;46141;52.382;5.270;2023-04-29T07:42:19;20.70;64.60
60287;DHT22;46141;52.382;5.270;2023-04-29T07:44:45;20.70;64.70
60287;DHT22;46141;52.382;5.270;2023-04-29T07:47:11;20.70;64.50
60287;DHT22;46141;52.382;5.270;2023-04-29T07:49:37;20.70;64.90
60287;DHT22;46141;52.382;5.270;2023-04-29T07:52:06;20.80;64.10
60287;DHT22;46141;52.382;5.270;2023-04-29T07:54:34;20.80;63.90
60287;DHT22;46141;52.382;5.270;2023-04-29T07:57:00;20.80;63.70
60287;DHT22;46141;52.382;5.270;2023-04-29T07:59:28;20.90;63.50
60287;DHT22;46141;52.382;5.270;2023-04-29T08:01:53;21.00;63.10
60287;DHT22;46141;52.382;5.270;2023-04-29T08:04:20;21.00;62.80
60287;DHT22;46141;52.382;5.270;2023-04-29T08:06:46;21.10;62.80
60287;DHT22;46141;52.382;5.270;2023-04-29T08:09:11;21.10;62.90
60287;DHT22;46141;52.382;5.270;2023-04-29T08:11:37;21.10;63.00
60287;DHT22;46141;52.382;5.270;2023-04-29T08:14:04;21.20;63.20
60287;DHT22;46141;52.382;5.270;2023-04-29T08:16:30;21.10;63.30
60287;DHT22;46141;52.382;5.270;2023-04-29T08:18:56;21.20;63.40
60287;DHT22;46141;52.382;5.270;2023-04-29T08:21:22;21.10;63.50
60287;DHT22;46141;52.382;5.270;2023-04-29T08:23:47;21.00;63.30
60287;DHT22;46141;52.382;5.270;2023-04-29T08:26:13;21.00;63.50
60287;DHT22;46141;52.382;5.270;2023-04-29T08:28:39;21.00;63.30
60287;DHT22;46141;52.382;5.270;2023-04-29T08:31:05;21.00;62.90
60287;DHT22;46141;52.382;5.270;2023-04-29T08:33:35;21.10;62.80
60287;DHT22;46141;52.382;5.270;2023-04-29T08:36:02;21.10;62.90
60287;DHT22;46141;52.382;5.270;2023-04-29T08:38:28;21.00;63.10
60287;DHT22;46141;52.382;5.270;2023-04-29T08:40:54;21.00;63.10
60287;DHT22;46141;52.382;5.270;2023-04-29T08:43:21;21.10;62.90
60287;DHT22;46141;52.382;5.270;2023-04-29T08:45:50;21.10;62.70
60287;DHT22;46141;52.382;5.270;2023-04-29T08:48:17;21.10;62.90
60287;DHT22;46141;52.382;5.270;2023-04-29T08:50:43;21.10;62.80
60287;DHT22;46141;52.382;5.270;2023-04-29T08:53:11;21.10;62.70
60287;DHT22;46141;52.382;5.270;2023-04-29T08:55:44;21.00;62.50
60287;DHT22;46141;52.382;5.270;2023-04-29T08:58:12;21.00;62.40
60287;DHT22;46141;52.382;5.270;2023-04-29T09:00:42;21.00;62.40
60287;DHT22;46141;52.382;5.270;2023-04-29T09:03:26;21.00;62.20
60287;DHT22;46141;52.382;5.270;2023-04-29T09:05:55;21.00;62.10
60287;DHT22;46141;52.382;5.270;2023-04-29T09:08:24;21.00;61.60
60287;DHT22;46141;52.382;5.270;2023-04-29T09:10:51;21.00;61.90
60287;DHT22;46141;52.382;5.270;2023-04-29T09:13:31;21.10;62.10
60287;DHT22;46141;52.382;5.270;2023-04-29T09:15:57;21.10;62.20
60287;DHT22;46141;52.382;5.270;2023-04-29T09:21:27;21.10;61.90
60287;DHT22;46141;52.382;5.270;2023-04-29T09:23:55;21.10;61.60
60287;DHT22;46141;52.382;5.270;2023-04-29T09:26:22;21.10;61.40
60287;DHT22;46141;52.382;5.270;2023-04-29T09:29:12;21.20;61.20
60287;DHT22;46141;52.382;5.270;2023-04-29T09:31:39;21.30;60.80
60287;DHT22;46141;52.382;5.270;2023-04-29T09:34:05;21.30;61.00
60287;DHT22;46141;52.382;5.270;2023-04-29T09:36:39;21.30;61.10
60287;DHT22;46141;52.382;5.270;2023-04-29T09:39:06;21.20;61.10
60287;DHT22;46141;52.382;5.270;2023-04-29T09:41:56;21.20;60.70
60287;DHT22;46141;52.382;5.270;2023-04-29T09:44:26;21.20;60.40
60287;DHT22;46141;52.382;5.270;2023-04-29T09:47:02;21.20;60.30
60287;DHT22;46141;52.382;5.270;2023-04-29T09:49:42;21.20;60.10
60287;DHT22;46141;52.382;5.270;2023-04-29T09:52:11;21.30;60.30
60287;DHT22;46141;52.382;5.270;2023-04-29T09:54:39;21.30;60.20
60287;DHT22;46141;52.382;5.270;2023-04-29T09:57:07;21.30;60.20
60287;DHT22;46141;52.382;5.270;2023-04-29T09:59:35;21.20;59.60
60287;DHT22;46141;52.382;5.270;2023-04-29T10:02:11;21.20;59.50
60287;DHT22;46141;52.382;5.270;2023-04-29T10:04:40;21.20;59.80
60287;DHT22;46141;52.382;5.270;2023-04-29T10:07:08;21.20;59.80
60287;DHT22;46141;52.382;5.270;2023-04-29T10:09:36;21.20;60.00
60287;DHT22;46141;52.382;5.270;2023-04-29T10:12:06;21.20;59.80
60287;DHT22;46141;52.382;5.270;2023-04-29T10:14:47;21.30;59.80
60287;DHT22;46141;52.382;5.270;2023-04-29T10:17:24;21.30;60.00
60287;DHT22;46141;52.382;5.270;2023-04-29T10:20:04;21.30;59.80
60287;DHT22;46141;52.382;5.270;2023-04-29T10:22:46;21.30;59.90
60287;DHT22;46141;52.382;5.270;2023-04-29T10:25:14;21.30;59.90
60287;DHT22;46141;52.382;5.270;2023-04-29T10:27:44;21.30;59.90
60287;DHT22;46141;52.382;5.270;2023-04-29T10:30:15;21.30;60.00
60287;DHT22;46141;52.382;5.270;2023-04-29T10:32:42;21.40;59.60
60287;DHT22;46141;52.382;5.270;2023-04-29T10:35:09;21.30;59.50
60287;DHT22;46141;52.382;5.270;2023-04-29T10:37:40;21.40;59.70
60287;DHT22;46141;52.382;5.270;2023-04-29T10:40:26;21.40;59.20
60287;DHT22;46141;52.382;5.270;2023-04-29T10:42:55;21.40;59.20
60287;DHT22;46141;52.382;5.270;2023-04-29T10:50:32;21.50;60.50
60287;DHT22;46141;52.382;5.270;2023-04-29T10:53:02;21.50;59.80
60287;DHT22;46141;52.382;5.270;2023-04-29T10:55:27;21.40;59.40
60287;DHT22;46141;52.382;5.270;2023-04-29T10:57:57;21.40;59.80
60287;DHT22;46141;52.382;5.270;2023-04-29T11:00:31;21.40;59.80
60287;DHT22;46141;52.382;5.270;2023-04-29T11:02:59;21.40;59.70
60287;DHT22;46141;52.382;5.270;2023-04-29T11:05:31;21.40;59.60
60287;DHT22;46141;52.382;5.270;2023-04-29T11:08:22;21.40;59.60
60287;DHT22;46141;52.382;5.270;2023-04-29T11:10:52;21.40;59.10
60287;DHT22;46141;52.382;5.270;2023-04-29T11:16:06;21.40;58.70
60287;DHT22;46141;52.382;5.270;2023-04-29T11:18:33;21.40;58.60
60287;DHT22;46141;52.382;5.270;2023-04-29T11:23:40;21.40;58.40
60287;DHT22;46141;52.382;5.270;2023-04-29T11:26:06;21.50;58.00
60287;DHT22;46141;52.382;5.270;2023-04-29T11:28:32;21.50;58.00
60287;DHT22;46141;52.382;5.270;2023-04-29T11:30:58;21.50;58.30
60287;DHT22;46141;52.382;5.270;2023-04-29T11:33:25;21.50;58.60
60287;DHT22;46141;52.382;5.270;2023-04-29T11:35:53;21.50;58.80
60287;DHT22;46141;52.382;5.270;2023-04-29T11:38:29;21.50;58.60
60287;DHT22;46141;52.382;5.270;2023-04-29T11:40:56;21.50;58.50
60287;DHT22;46141;52.382;5.270;2023-04-29T11:43:24;21.50;58.50
60287;DHT22;46141;52.382;5.270;2023-04-29T11:45:51;21.60;58.40
60287;DHT22;46141;52.382;5.270;2023-04-29T11:48:23;21.60;58.50
60287;DHT22;46141;52.382;5.270;2023-04-29T11:50:51;21.60;58.30
60287;DHT22;46141;52.382;5.270;2023-04-29T11:53:23;21.60;58.30
60287;DHT22;46141;52.382;5.270;2023-04-29T11:55:51;21.60;58.30
60287;DHT22;46141;52.382;5.270;2023-04-29T11:58:19;21.70;58.10
60287;DHT22;46141;52.382;5.270;2023-04-29T12:00:49;21.70;58.00
60287;DHT22;46141;52.382;5.270;2023-04-29T12:03:19;21.70;57.90
60287;DHT22;46141;52.382;5.270;2023-04-29T12:05:56;21.70;58.10
60287;DHT22;46141;52.382;5.270;2023-04-29T12:08:23;21.70;58.10
60287;DHT22;46141;52.382;5.270;2023-04-29T12:10:50;21.80;58.40
60287;DHT22;46141;52.382;5.270;2023-04-29T12:13:19;21.80;58.70
60287;DHT22;46141;52.382;5.270;2023-04-29T12:15:47;21.80;58.20
60287;DHT22;46141;52.382;5.270;2023-04-29T12:18:17;21.80;58.00
60287;DHT22;46141;52.382;5.270;2023-04-29T12:20:43;21.80;58.00
60287;DHT22;46141;52.382;5.270;2023-04-29T12:23:22;21.90;57.80
60287;DHT22;46141;52.382;5.270;2023-04-29T12:25:50;21.90;58.00
60287;DHT22;46141;52.382;5.270;2023-04-29T12:28:16;21.90;57.70
60287;DHT22;46141;52.382;5.270;2023-04-29T12:30:50;22.00;57.60
60287;DHT22;46141;52.382;5.270;2023-04-29T12:33:25;22.10;57.20
60287;DHT22;46141;52.382;5.270;2023-04-29T12:35:53;22.10;57.30
60287;DHT22;46141;52.382;5.270;2023-04-29T12:38:25;22.10;57.40
60287;DHT22;46141;52.382;5.270;2023-04-29T12:41:03;22.10;57.10
60287;DHT22;46141;52.382;5.270;2023-04-29T12:43:32;22.20;57.20
60287;DHT22;46141;52.382;5.270;2023-04-29T12:46:06;22.20;57.10
60287;DHT22;46141;52.382;5.270;2023-04-29T12:48:34;22.20;57.30
60287;DHT22;46141;52.382;5.270;2023-04-29T12:51:03;22.20;57.80
60287;DHT22;46141;52.382;5.270;2023-04-29T12:53:29;22.20;58.00
60287;DHT22;46141;52.382;5.270;2023-04-29T12:55:56;22.10;58.00
60287;DHT22;46141;52.382;5.270;2023-04-29T12:58:22;22.20;58.80
60287;DHT22;46141;52.382;5.270;2023-04-29T13:00:47;22.10;57.70
60287;DHT22;46141;52.382;5.270;2023-04-29T13:03:14;22.20;57.60
60287;DHT22;46141;52.382;5.270;2023-04-29T13:05:40;22.20;57.50
60287;DHT22;46141;52.382;5.270;2023-04-29T13:08:05;22.20;57.20
60287;DHT22;46141;52.382;5.270;2023-04-29T13:10:33;22.30;57.40
60287;DHT22;46141;52.382;5.270;2023-04-29T13:12:59;22.30;57.30
60287;DHT22;46141;52.382;5.270;2023-04-29T13:15:26;22.30;57.30
60287;DHT22;46141;52.382;5.270;2023-04-29T13:17:52;22.30;57.40
60287;DHT22;46141;52.382;5.270;2023-04-29T13:20:18;22.30;57.30
60287;DHT22;46141;52.382;5.270;2023-04-29T13:22:44;22.30;57.20
60287;DHT22;46141;52.382;5.270;2023-04-29T13:25:10;22.30;57.00
60287;DHT22;46141;52.382;5.270;2023-04-29T13:27:37;22.40;56.90
60287;DHT22;46141;52.382;5.270;2023-04-29T13:30:04;22.40;56.90
60287;DHT22;46141;52.382;5.270;2023-04-29T13:32:30;22.50;57.10
60287;DHT22;46141;52.382;5.270;2023-04-29T13:34:56;22.40;56.70
60287;DHT22;46141;52.382;5.270;2023-04-29T13:37:22;22.50;56.70
60287;DHT22;46141;52.382;5.270;2023-04-29T13:39:47;22.50;56.60
60287;DHT22;46141;52.382;5.270;2023-04-29T13:42:13;22.50;56.70
60287;DHT22;46141;52.382;5.270;2023-04-29T13:44:39;22.60;56.70
60287;DHT22;46141;52.382;5.270;2023-04-29T13:47:14;22.60;56.80
60287;DHT22;46141;52.382;5.270;2023-04-29T13:49:40;22.60;56.70
60287;DHT22;46141;52.382;5.270;2023-04-29T13:52:09;22.70;56.70
60287;DHT22;46141;52.382;5.270;2023-04-29T13:54:35;22.70;56.80
60287;DHT22;46141;52.382;5.270;2023-04-29T13:57:01;22.60;56.30
60287;DHT22;46141;52.382;5.270;2023-04-29T13:59:31;22.70;56.30
60287;DHT22;46141;52.382;5.270;2023-04-29T14:01:57;22.80;56.00
60287;DHT22;46141;52.382;5.270;2023-04-29T14:04:24;22.80;55.90
60287;DHT22;46141;52.382;5.270;2023-04-29T14:06:50;22.80;55.90
60287;DHT22;46141;52.382;5.270;2023-04-29T14:09:16;22.80;55.80
60287;DHT22;46141;52.382;5.270;2023-04-29T14:11:42;22.90;55.90
60287;DHT22;46141;52.382;5.270;2023-04-29T14:14:08;22.90;55.90
60287;DHT22;46141;52.382;5.270;2023-04-29T14:16:34;22.90;55.90
60287;DHT22;46141;52.382;5.270;2023-04-29T14:18:59;23.00;55.80
60287;DHT22;46141;52.382;5.270;2023-04-29T14:21:25;23.10;56.00
60287;DHT22;46141;52.382;5.270;2023-04-29T14:23:51;23.10;55.70
60287;DHT22;46141;52.382;5.270;2023-04-29T14:26:17;23.10;55.70
60287;DHT22;46141;52.382;5.270;2023-04-29T14:28:43;23.10;55.40
60287;DHT22;46141;52.382;5.270;2023-04-29T14:31:08;23.10;55.30
60287;DHT22;46141;52.382;5.270;2023-04-29T14:33:35;23.20;55.10
60287;DHT22;46141;52.382;5.270;2023-04-29T14:36:01;23.20;54.00
60287;DHT22;46141;52.382;5.270;2023-04-29T14:38:26;23.20;54.10
60287;DHT22;46141;52.382;5.270;2023-04-29T14:40:52;23.30;53.90
60287;DHT22;46141;52.382;5.270;2023-04-29T14:43:17;23.40;53.90
60287;DHT22;46141;52.382;5.270;2023-04-29T14:45:43;23.40;53.90
60287;DHT22;46141;52.382;5.270;2023-04-29T14:48:10;23.50;53.80
60287;DHT22;46141;52.382;5.270;2023-04-29T14:50:36;23.50;53.60
60287;DHT22;46141;52.382;5.270;2023-04-29T14:53:01;23.60;53.80
60287;DHT22;46141;52.382;5.270;2023-04-29T14:55:27;23.70;54.00
60287;DHT22;46141;52.382;5.270;2023-04-29T14:57:53;23.70;54.00
60287;DHT22;46141;52.382;5.270;2023-04-29T15:00:19;23.70;54.10
60287;DHT22;46141;52.382;5.270;2023-04-29T15:02:45;23.80;54.20
60287;DHT22;46141;52.382;5.270;2023-04-29T15:05:11;23.80;54.60
60287;DHT22;46141;52.382;5.270;2023-04-29T15:07:37;23.80;54.70
60287;DHT22;46141;52.382;5.270;2023-04-29T15:10:03;23.80;54.60
60287;DHT22;46141;52.382;5.270;2023-04-29T15:12:31;23.80;54.40
60287;DHT22;46141;52.382;5.270;2023-04-29T15:14:56;23.90;54.40
60287;DHT22;46141;52.382;5.270;2023-04-29T15:17:22;24.00;54.50
60287;DHT22;46141;52.382;5.270;2023-04-29T15:19:48;24.00;54.60
60287;DHT22;46141;52.382;5.270;2023-04-29T15:22:13;24.00;54.60
60287;DHT22;46141;52.382;5.270;2023-04-29T15:24:39;24.10;54.50
60287;DHT22;46141;52.382;5.270;2023-04-29T15:27:05;24.20;54.50
60287;DHT22;46141;52.382;5.270;2023-04-29T15:29:31;24.20;54.60
60287;DHT22;46141;52.382;5.270;2023-04-29T15:31:58;24.20;54.60
60287;DHT22;46141;52.382;5.270;2023-04-29T15:34:24;24.30;54.70
60287;DHT22;46141;52.382;5.270;2023-04-29T15:36:50;24.30;55.00
60287;DHT22;46141;52.382;5.270;2023-04-29T15:39:15;24.40;54.90
60287;DHT22;46141;52.382;5.270;2023-04-29T15:41:42;24.40;55.20
60287;DHT22;46141;52.382;5.270;2023-04-29T15:44:07;24.40;55.10
60287;DHT22;46141;52.382;5.270;2023-04-29T15:46:33;24.50;55.30
60287;DHT22;46141;52.382;5.270;2023-04-29T15:48:58;24.50;55.20
60287;DHT22;46141;52.382;5.270;2023-04-29T15:51:25;24.50;55.20
60287;DHT22;46141;52.382;5.270;2023-04-29T15:53:50;24.50;55.40
60287;DHT22;46141;52.382;5.270;2023-04-29T15:56:16;24.50;55.10
60287;DHT22;46141;52.382;5.270;2023-04-29T15:58:42;24.60;55.40